Time;durP1;ratioP1;P1;durP2;ratioP2;P2;SDS_P1;SDS_P2;PMS_P1;PMS_P2;Temp;Humidity;BMP_temperature;BMP_pressure;BME280_temperature;BME280_humidity;BME280_pressure;Samples;Min_cycle;Max_cycle;Signal;HPM_P1;HPM_P2
2021/07/30 00:02:10;;;;;;;;;4.00;4.00;;;;;20.79;49.19;100808.34;4772815;29;45658;-85
2021/07/30 00:04:36;;;;;;;;;8.67;5.67;;;;;20.69;49.34;100792.53;4772809;29;45256;-85
2021/07/30 00:07:01;;;;;;;;;5.00;5.00;;;;;20.77;49.28;100804.84;4771904;29;46348;-85
2021/07/30 00:09:27;;;;;;;;;6.00;6.00;;;;;20.73;49.47;100800.50;4772141;29;45351;-85
2021/07/30 00:11:52;;;;;;;;;5.00;5.00;;;;;20.71;49.44;100800.50;4772259;29;45367;-84
2021/07/30 00:14:17;;;;;;;;;4.33;4.33;;;;;20.69;49.56;100800.56;4772385;29;45452;-85
2021/07/30 00:16:43;;;;;;;;;5.67;5.00;;;;;20.68;49.80;100804.16;4770748;29;45799;-84
2021/07/30 00:19:08;;;;;;;;;8.00;6.00;;;;;20.68;49.84;100805.94;4771837;29;45496;-85
2021/07/30 00:21:34;;;;;;;;;6.00;4.00;;;;;20.60;49.63;100804.31;4772045;29;45315;-87
2021/07/30 00:23:59;;;;;;;;;6.67;5.67;;;;;20.62;49.86;100793.63;4755991;29;45427;-84
2021/07/30 00:26:24;;;;;;;;;5.00;5.00;;;;;20.52;49.77;100782.25;4771716;29;45496;-84
2021/07/30 00:28:50;;;;;;;;;7.50;5.00;;;;;20.61;50.05;100791.84;4771634;29;45415;-85
2021/07/30 00:31:15;;;;;;;;;9.33;4.00;;;;;20.60;50.08;100785.63;4755534;29;45430;-84
2021/07/30 00:33:40;;;;;;;;;5.00;5.00;;;;;20.56;49.94;100785.75;4771805;29;45343;-85
2021/07/30 00:36:06;;;;;;;;;4.00;4.00;;;;;20.57;50.08;100790.16;4755663;29;47124;-84
2021/07/30 00:38:31;;;;;;;;;6.67;4.33;;;;;20.53;50.04;100788.47;4790205;29;45247;-86
2021/07/30 00:40:57;;;;;;;;;8.00;4.67;;;;;20.51;50.10;100782.31;4789576;29;45591;-86
2021/07/30 00:43:22;;;;;;;;;5.33;4.33;;;;;20.51;50.26;100787.63;4789931;29;45341;-86
2021/07/30 00:45:53;;;;;;;;;7.33;5.33;;;;;20.53;50.46;100784.03;4789494;29;45228;-86
2021/07/30 00:48:19;;;;;;;;;8.33;5.00;;;;;20.51;50.18;100780.53;4773231;29;45869;-86
2021/07/30 00:50:44;;;;;;;;;4.00;4.00;;;;;20.50;50.41;100785.88;4789839;29;45428;-86
2021/07/30 00:53:10;;;;;;;;;6.67;5.67;;;;;20.48;50.25;100780.56;4790244;29;45301;-87
2021/07/30 00:55:36;;;;;;;;;5.33;4.00;;;;;20.47;50.51;100777.03;4790682;29;45445;-87
2021/07/30 00:58:02;;;;;;;;;4.33;4.33;;;;;20.41;50.76;100769.16;4791325;29;45333;-86
2021/07/30 01:00:28;;;;;;;;;5.00;5.00;;;;;20.44;50.42;100782.44;4791802;29;45222;-88
2021/07/30 01:02:53;;;;;;;;;6.00;5.00;;;;;20.42;50.46;100776.25;4774338;29;45320;-87
2021/07/30 01:05:19;;;;;;;;;6.33;4.67;;;;;20.39;50.34;100760.31;4789608;29;46119;-86
2021/07/30 01:07:44;;;;;;;;;5.00;5.00;;;;;20.41;50.68;100769.16;4789839;29;45244;-86
2021/07/30 01:10:10;;;;;;;;;4.67;4.33;;;;;20.31;50.68;100756.94;4789736;29;45379;-87
2021/07/30 01:12:35;;;;;;;;;7.67;6.00;;;;;20.38;50.71;100769.25;4789890;29;45393;-87
2021/07/30 01:15:01;;;;;;;;;5.00;5.00;;;;;20.32;50.36;100764.94;4773100;29;48439;-86
2021/07/30 01:17:27;;;;;;;;;6.00;5.00;;;;;20.34;50.57;100767.56;4789587;29;45432;-86
2021/07/30 01:19:53;;;;;;;;;5.67;4.00;;;;;20.34;50.78;100772.91;4773255;29;45450;-86
2021/07/30 01:22:31;;;;;;;;;6.67;5.67;;;;;20.34;50.73;100767.56;4789250;29;45379;-86
2021/07/30 01:24:56;;;;;;;;;4.33;4.33;;;;;20.30;50.68;100753.41;4788639;29;46375;-86
2021/07/30 01:27:22;;;;;;;;;6.00;5.00;;;;;20.33;50.70;100757.78;4788832;29;45456;-84
2021/07/30 01:29:49;;;;;;;;;4.00;4.00;;;;;20.32;50.79;100754.25;4789164;29;45289;-84
2021/07/30 01:32:16;;;;;;;;;5.00;5.00;;;;;20.31;50.82;100762.28;4789166;29;45340;-85
2021/07/30 01:34:44;;;;;;;;;7.33;5.00;;;;;20.28;51.18;100744.56;4788816;29;45487;-84
2021/07/30 01:37:10;;;;;;;;;5.00;5.00;;;;;20.27;50.84;100741.91;4788448;29;45404;-85
2021/07/30 01:39:36;;;;;;;;;5.00;5.00;;;;;20.29;50.86;100748.09;4788719;29;45369;-85
2021/07/30 01:42:01;;;;;;;;;5.33;5.00;;;;;20.27;51.37;100745.47;4789020;29;45350;-85
2021/07/30 01:44:27;;;;;;;;;5.00;4.67;;;;;20.26;50.96;100749.06;4771951;29;46232;-85
2021/07/30 01:46:53;;;;;;;;;5.00;5.00;;;;;20.27;51.50;100752.56;4788537;29;45264;-85
2021/07/30 01:49:19;;;;;;;;;5.00;5.00;;;;;20.26;51.04;100743.72;4788791;29;45216;-86
2021/07/30 01:51:44;;;;;;;;;6.67;5.00;;;;;20.24;51.23;100743.72;4788930;29;45282;-85
2021/07/30 01:54:10;;;;;;;;;6.67;5.33;;;;;20.18;51.40;100732.34;4791410;29;46141;-85
2021/07/30 01:56:35;;;;;;;;;7.00;6.00;;;;;20.20;51.23;100741.19;4791784;29;45391;-85
2021/07/30 01:59:00;;;;;;;;;9.00;4.00;;;;;20.16;51.38;100735.03;4791800;29;45450;-84
2021/07/30 02:01:26;;;;;;;;;5.00;5.00;;;;;20.11;51.30;100734.25;4791983;29;45248;-86
2021/07/30 02:03:51;;;;;;;;;5.00;5.00;;;;;20.11;51.33;100740.50;4791580;29;46028;-84
2021/07/30 02:06:16;;;;;;;;;6.00;5.67;;;;;20.13;51.45;100737.78;4791603;29;45526;-84
2021/07/30 02:08:45;;;;;;;;;5.00;4.33;;;;;20.10;51.48;100738.72;4791900;29;45491;-83
2021/07/30 02:11:10;;;;;;;;;4.67;4.67;;;;;20.11;51.32;100743.16;4791417;29;45534;-85
2021/07/30 02:16:20;;;;;;;;;7.00;5.00;;;;;20.11;51.77;100735.16;4791550;29;45452;-85
2021/07/30 02:18:46;;;;;;;;;4.67;4.67;;;;;20.10;51.83;100728.03;4791675;29;45405;-86
2021/07/30 02:21:11;;;;;;;;;5.00;5.00;;;;;20.09;51.70;100734.31;4791666;29;45377;-85
2021/07/30 02:23:36;;;;;;;;;4.00;4.00;;;;;20.08;51.37;100724.53;4791186;29;45390;-85
2021/07/30 02:26:02;;;;;;;;;5.00;5.00;;;;;20.06;52.20;100726.31;4791215;29;45258;-85
2021/07/30 02:28:27;;;;;;;;;4.67;4.00;;;;;20.06;52.01;100722.78;4791551;29;45355;-85
2021/07/30 02:30:53;;;;;;;;;8.00;6.00;;;;;19.98;51.87;100718.50;4791505;29;45490;-86
2021/07/30 02:33:18;;;;;;;;;6.67;4.33;;;;;20.01;51.84;100723.75;4791095;29;45721;-85
2021/07/30 02:35:45;;;;;;;;;6.00;6.00;;;;;19.94;51.57;100711.47;4791452;29;45298;-85
2021/07/30 02:38:10;;;;;;;;;6.00;6.00;;;;;19.94;51.74;100708.81;4791018;29;45207;-85
2021/07/30 02:40:36;;;;;;;;;6.33;5.33;;;;;19.88;51.81;100706.28;4791256;29;45499;-86
2021/07/30 02:43:01;;;;;;;;;7.00;7.00;;;;;19.93;51.68;100720.38;4790922;29;45306;-86
2021/07/30 02:45:27;;;;;;;;;5.00;5.00;;;;;19.93;51.55;100714.16;4790890;29;45409;-86
2021/07/30 02:47:52;;;;;;;;;6.00;6.00;;;;;19.92;52.35;100707.97;4791182;29;45737;-85
2021/07/30 02:50:18;;;;;;;;;6.67;6.00;;;;;19.89;51.97;100710.69;4791182;29;45388;-85
2021/07/30 02:52:43;;;;;;;;;6.67;4.00;;;;;19.90;51.93;100709.78;4791123;29;45400;-85
2021/07/30 02:55:09;;;;;;;;;6.33;6.33;;;;;19.86;52.21;100703.63;4790846;29;45355;-85
2021/07/30 02:57:34;;;;;;;;;6.67;6.33;;;;;19.87;52.11;100708.06;4791031;29;45415;-85
2021/07/30 02:59:59;;;;;;;;;5.33;5.00;;;;;19.86;52.23;100702.78;4791159;29;45322;-86
2021/07/30 03:02:25;;;;;;;;;5.00;5.00;;;;;19.82;52.28;100693.06;4790730;29;46574;-85
2021/07/30 03:04:50;;;;;;;;;7.00;5.00;;;;;19.84;52.00;100694.78;4790727;29;45461;-86
2021/07/30 03:07:16;;;;;;;;;9.33;5.67;;;;;19.81;52.49;100699.31;4791178;29;45447;-86
2021/07/30 03:09:41;;;;;;;;;6.67;6.67;;;;;19.81;52.38;100699.31;4791005;29;45324;-86
2021/07/30 03:12:07;;;;;;;;;7.67;6.67;;;;;19.79;52.18;100696.69;4774124;29;47280;-85
2021/07/30 03:14:32;;;;;;;;;6.00;5.00;;;;;19.75;52.26;100692.31;4790647;29;45436;-86
2021/07/30 03:16:58;;;;;;;;;7.00;7.00;;;;;19.78;52.13;100698.47;4790524;29;45785;-85
2021/07/30 03:19:23;;;;;;;;;7.33;7.33;;;;;19.76;52.45;100686.94;4790946;29;45424;-85
2021/07/30 03:21:48;;;;;;;;;5.00;5.00;;;;;19.68;52.54;100678.25;4790507;29;45287;-85
2021/07/30 03:24:14;;;;;;;;;8.00;8.00;;;;;19.81;52.68;100701.97;4790627;29;45174;-85
2021/07/30 03:26:39;;;;;;;;;6.00;6.00;;;;;19.79;52.34;100702.91;4790354;29;45195;-85
2021/07/30 03:29:05;;;;;;;;;7.33;4.00;;;;;19.79;52.45;100697.56;4790706;29;45452;-85
2021/07/30 03:31:30;;;;;;;;;7.00;4.67;;;;;19.71;52.66;100677.31;4790205;29;45233;-85
2021/07/30 03:33:56;;;;;;;;;6.33;5.33;;;;;19.78;52.24;100694.91;4774302;29;45293;-85
2021/07/30 03:36:21;;;;;;;;;7.33;6.00;;;;;19.76;52.15;100686.94;4773938;29;45670;-86
2021/07/30 03:38:47;;;;;;;;;5.00;5.00;;;;;19.78;52.04;100692.25;4790594;29;45393;-85
2021/07/30 03:41:12;;;;;;;;;8.00;5.00;;;;;19.79;52.21;100696.69;4790157;29;45329;-85
2021/07/30 03:43:38;;;;;;;;;6.00;6.00;;;;;19.78;52.31;100690.47;4789980;29;45369;-86
2021/07/30 03:46:03;;;;;;;;;5.00;4.00;;;;;19.77;52.30;100686.06;4790172;29;45566;-86
2021/07/30 03:48:29;;;;;;;;;5.00;5.00;;;;;19.77;52.53;100690.50;4790493;29;45361;-84
2021/07/30 03:50:54;;;;;;;;;5.67;5.67;;;;;19.75;52.30;100687.88;4773530;29;48108;-85
2021/07/30 03:53:19;;;;;;;;;7.00;5.33;;;;;19.72;52.02;100687.03;4789920;29;45363;-85
2021/07/30 03:55:45;;;;;;;;;4.00;4.00;;;;;19.72;52.16;100690.59;4774064;29;45521;-85
2021/07/30 03:58:10;;;;;;;;;5.00;4.00;;;;;19.67;52.53;100688.03;4790264;29;45419;-85
2021/07/30 04:00:37;;;;;;;;;6.00;5.00;;;;;19.68;52.61;100688.91;4774396;29;45989;-85
2021/07/30 04:03:03;;;;;;;;;6.67;5.00;;;;;19.60;52.23;100672.19;4790723;29;45270;-85
2021/07/30 04:05:28;;;;;;;;;6.00;5.00;;;;;19.64;52.18;100685.44;4800046;29;45527;-85
2021/07/30 04:07:54;;;;;;;;;9.33;5.33;;;;;19.52;52.38;100677.69;4799669;29;45289;-84
2021/07/30 04:10:19;;;;;;;;;5.00;5.00;;;;;19.60;52.52;100691.75;4799677;29;45621;-85
2021/07/30 04:12:44;;;;;;;;;4.00;4.00;;;;;19.57;52.57;100681.13;4808148;29;44671;-85
2021/07/30 04:15:10;;;;;;;;;6.67;5.00;;;;;19.49;52.75;100673.31;4788130;29;45470;-85
2021/07/30 04:17:35;;;;;;;;;8.00;4.67;;;;;19.56;52.67;100688.25;4794678;29;45423;-84
2021/07/30 04:20:01;;;;;;;;;6.67;5.00;;;;;19.49;52.63;100673.31;4790167;29;45524;-85
2021/07/30 04:22:26;;;;;;;;;5.33;5.00;;;;;19.53;53.33;100683.00;4789625;29;45382;-85
2021/07/30 04:24:52;;;;;;;;;5.00;5.00;;;;;19.53;53.12;100682.09;4789911;29;45390;-85
2021/07/30 04:27:17;;;;;;;;;8.67;6.33;;;;;19.49;53.14;100673.31;4790075;29;45386;-85
2021/07/30 04:29:43;;;;;;;;;5.00;5.00;;;;;19.47;53.04;100675.13;4789427;29;45926;-84
2021/07/30 04:32:10;;;;;;;;;6.00;5.00;;;;;19.52;52.83;100683.88;4789560;29;45501;-84
2021/07/30 04:34:37;;;;;;;;;9.00;5.33;;;;;19.51;53.39;100686.59;4789660;29;45319;-84
2021/07/30 04:37:03;;;;;;;;;6.33;4.00;;;;;19.53;53.25;100696.31;4789543;29;45379;-85
2021/07/30 04:39:28;;;;;;;;;3.00;3.00;;;;;19.44;53.38;100678.72;4789348;29;46039;-86
2021/07/30 04:41:54;;;;;;;;;4.67;4.33;;;;;19.43;53.42;100679.66;4789496;29;45361;-84
2021/07/30 04:44:20;;;;;;;;;5.00;5.00;;;;;19.52;52.99;100694.56;4789561;29;45387;-84
2021/07/30 04:46:46;;;;;;;;;4.67;4.67;;;;;19.51;53.75;100691.94;4789700;29;45502;-85
2021/07/30 04:49:11;;;;;;;;;5.33;5.00;;;;;19.49;53.53;100678.63;4789587;29;46078;-85
2021/07/30 04:51:36;;;;;;;;;3.67;3.67;;;;;19.45;53.65;100679.59;4789402;29;45514;-84
2021/07/30 04:54:02;;;;;;;;;5.00;5.00;;;;;19.51;53.75;100698.13;4789516;29;45359;-86
2021/07/30 04:56:27;;;;;;;;;7.00;5.00;;;;;19.51;53.69;100692.81;4789675;29;45426;-85
2021/07/30 04:58:53;;;;;;;;;5.33;4.67;;;;;19.43;53.56;100669.00;4789203;29;45377;-84
2021/07/30 05:01:18;;;;;;;;;7.67;5.00;;;;;19.41;53.38;100670.81;4788986;29;45555;-85
2021/07/30 05:03:44;;;;;;;;;4.33;4.33;;;;;19.48;53.37;100692.84;4789507;29;45385;-85
2021/07/30 05:06:17;;;;;;;;;6.00;5.00;;;;;19.48;53.43;100684.88;4789667;29;45433;-84
2021/07/30 05:08:43;;;;;;;;;5.00;5.00;;;;;19.45;53.21;100676.94;4789484;29;45344;-85
2021/07/30 05:11:10;;;;;;;;;7.00;5.67;;;;;19.42;53.16;100677.00;4789405;29;45242;-84
2021/07/30 05:13:37;;;;;;;;;6.00;5.00;;;;;19.38;53.00;100680.63;4789510;29;45389;-85
2021/07/30 05:16:10;;;;;;;;;5.67;5.00;;;;;19.34;52.95;100677.16;4805897;29;45476;-85
2021/07/30 05:18:36;;;;;;;;;10.67;6.00;;;;;19.32;53.09;100687.84;4808613;29;48139;-85
2021/07/30 05:21:05;;;;;;;;;5.00;4.00;;;;;19.31;53.17;100691.41;4793540;29;45331;-84
2021/07/30 05:23:31;;;;;;;;;6.00;4.33;;;;;19.21;52.91;100669.41;4772897;29;45278;-85
2021/07/30 05:25:56;;;;;;;;;5.00;5.00;;;;;19.26;53.03;100677.31;4789806;29;45475;-85
2021/07/30 05:28:22;;;;;;;;;6.00;4.00;;;;;19.25;53.16;100683.53;4790980;29;45463;-84
2021/07/30 05:30:48;;;;;;;;;4.67;2.33;;;;;19.21;53.13;100689.84;4792412;29;45424;-84
2021/07/30 05:33:13;;;;;;;;;4.67;4.00;;;;;19.24;52.88;100689.78;4792658;29;45443;-84
2021/07/30 05:35:38;;;;;;;;;6.33;6.00;;;;;19.24;53.00;100687.13;4792190;29;45403;-84
2021/07/30 05:38:04;;;;;;;;;8.67;4.00;;;;;19.19;53.15;100670.34;4791975;29;46312;-86
2021/07/30 05:40:29;;;;;;;;;7.00;6.00;;;;;19.17;53.08;100667.72;4775774;29;45615;-84
2021/07/30 05:42:54;;;;;;;;;5.33;5.33;;;;;19.17;53.12;100667.72;4775760;29;45488;-84
2021/07/30 05:45:20;;;;;;;;;7.33;4.67;;;;;19.28;53.02;100682.63;4792049;29;45327;-84
2021/07/30 05:47:49;;;;;;;;;4.67;4.00;;;;;19.27;53.07;100684.38;4791750;29;45830;-84
2021/07/30 05:50:15;;;;;;;;;3.33;3.33;;;;;19.20;53.31;100682.78;4792111;29;45418;-85
2021/07/30 05:52:40;;;;;;;;;5.00;4.00;;;;;19.23;53.11;100682.69;4791886;29;45419;-85
2021/07/30 05:55:06;;;;;;;;;6.00;4.00;;;;;19.21;53.58;100687.19;4791956;29;45385;-84
2021/07/30 05:57:34;;;;;;;;;5.00;4.00;;;;;19.13;53.30;100675.75;4775178;29;47820;-85
2021/07/30 06:00:05;;;;;;;;;4.33;4.33;;;;;19.18;53.58;100679.25;4791406;29;45501;-84
2021/07/30 06:02:30;;;;;;;;;6.00;6.00;;;;;19.15;53.65;100663.31;4791779;29;45380;-84
2021/07/30 06:04:55;;;;;;;;;5.67;4.67;;;;;19.16;54.02;100668.59;4791817;29;45247;-84
2021/07/30 06:07:21;;;;;;;;;4.33;4.33;;;;;19.13;54.36;100665.09;4791578;29;46298;-85
2021/07/30 06:09:46;;;;;;;;;5.67;5.67;;;;;19.16;54.41;100676.59;4791898;29;46022;-85
2021/07/30 06:12:12;;;;;;;;;4.00;4.00;;;;;19.10;54.43;100660.69;4792267;29;46043;-85
2021/07/30 06:14:37;;;;;;;;;5.33;5.33;;;;;19.08;54.56;100658.06;4792050;29;45420;-87
2021/07/30 06:17:03;;;;;;;;;4.67;4.00;;;;;19.12;54.64;100658.88;4791637;29;46162;-85
2021/07/30 06:19:28;;;;;;;;;4.67;4.67;;;;;19.16;54.75;100657.94;4775040;29;45442;-85
2021/07/30 06:21:54;;;;;;;;;7.67;5.67;;;;;19.14;54.96;100649.06;4791610;29;45459;-86
2021/07/30 06:24:19;;;;;;;;;5.00;3.67;;;;;19.16;54.91;100655.28;4791659;29;45861;-85
2021/07/30 06:26:45;;;;;;;;;4.67;3.33;;;;;19.19;55.15;100659.69;4791594;29;46165;-86
2021/07/30 06:29:10;;;;;;;;;5.67;5.00;;;;;19.16;54.79;100644.63;4791435;29;45440;-85
2021/07/30 06:31:35;;;;;;;;;4.67;4.00;;;;;19.16;55.30;100643.78;4775188;29;45457;-86
2021/07/30 06:34:01;;;;;;;;;4.33;4.33;;;;;19.26;55.24;100661.31;4791431;29;45375;-85
2021/07/30 06:36:26;;;;;;;;;7.33;4.33;;;;;19.27;55.32;100647.09;4774430;29;47304;-86
2021/07/30 06:38:51;;;;;;;;;4.67;4.67;;;;;19.30;55.48;100641.69;4774457;29;45446;-85
2021/07/30 06:41:18;;;;;;;;;4.33;4.33;;;;;19.38;55.45;100651.31;4791310;29;45203;-86
2021/07/30 06:43:43;;;;;;;;;5.67;5.33;;;;;19.43;55.75;100646.78;4792055;29;45661;-86
2021/07/30 06:46:09;;;;;;;;;5.00;5.00;;;;;19.51;55.53;100644.81;4790721;29;46534;-85
2021/07/30 06:48:35;;;;;;;;;4.67;4.67;;;;;19.52;55.36;100641.22;4774367;29;45428;-86
2021/07/30 06:51:01;;;;;;;;;6.67;5.67;;;;;19.57;55.42;100641.13;4790970;29;45361;-86
2021/07/30 06:53:26;;;;;;;;;7.67;6.67;;;;;19.62;55.18;100641.03;4791264;29;45294;-85
2021/07/30 06:55:52;;;;;;;;;5.00;5.00;;;;;19.59;55.39;100647.31;4790602;29;46210;-85
2021/07/30 06:58:17;;;;;;;;;8.33;6.00;;;;;19.62;55.21;100633.03;4790518;29;45411;-86
2021/07/30 07:00:43;;;;;;;;;4.67;4.00;;;;;19.73;55.81;100646.16;4791171;29;45893;-86
2021/07/30 07:03:08;;;;;;;;;7.00;4.00;;;;;19.81;55.54;100646.84;4790907;29;45510;-85
2021/07/30 07:05:34;;;;;;;;;6.67;5.00;;;;;19.84;55.47;100640.56;4789172;29;47819;-85
2021/07/30 07:07:59;;;;;;;;;5.33;5.00;;;;;19.87;55.27;100643.16;4774290;29;45493;-85
2021/07/30 07:10:25;;;;;;;;;5.00;3.67;;;;;19.93;55.49;100651.00;4790565;29;46130;-85
2021/07/30 07:12:50;;;;;;;;;4.33;4.00;;;;;19.97;55.47;100650.03;4790944;29;45469;-84
2021/07/30 07:15:16;;;;;;;;;3.67;3.67;;;;;19.99;55.52;100648.19;4790632;29;45975;-85
2021/07/30 07:17:41;;;;;;;;;5.00;4.00;;;;;20.05;55.36;100639.16;4790636;29;45482;-85
2021/07/30 07:20:07;;;;;;;;;4.67;3.33;;;;;20.03;55.78;100630.31;4790991;29;45368;-85
2021/07/30 07:22:32;;;;;;;;;4.00;4.00;;;;;20.15;55.45;100641.66;4791026;29;45460;-86
2021/07/30 07:24:58;;;;;;;;;4.33;4.33;;;;;20.18;55.43;100637.13;4790626;29;45319;-86
2021/07/30 07:27:23;;;;;;;;;5.00;5.00;;;;;20.19;55.59;100638.00;4790409;29;45303;-85
2021/07/30 07:29:49;;;;;;;;;6.33;5.00;;;;;20.27;55.51;100635.13;4791069;29;45332;-84
2021/07/30 07:32:14;;;;;;;;;8.33;6.00;;;;;20.31;55.31;100639.47;4791781;29;45453;-85
2021/07/30 07:34:40;;;;;;;;;6.00;4.00;;;;;20.34;55.76;100642.97;4791744;29;45949;-85
2021/07/30 07:37:05;;;;;;;;;7.33;4.00;;;;;20.35;55.21;100639.38;4792773;29;45244;-85
2021/07/30 07:39:32;;;;;;;;;5.67;5.67;;;;;20.45;55.59;100647.16;4775223;29;45461;-86
2021/07/30 07:41:57;;;;;;;;;6.67;6.33;;;;;20.54;55.92;100643.38;4791316;29;45345;-86
2021/07/30 07:44:25;;;;;;;;;5.67;4.00;;;;;20.59;55.55;100638.78;4790600;29;45455;-85
2021/07/30 07:46:51;;;;;;;;;5.00;3.33;;;;;20.65;55.66;100635.97;4790753;29;45340;-85
2021/07/30 07:49:17;;;;;;;;;4.67;4.00;;;;;20.76;55.57;100650.81;4790634;29;45436;-84
2021/07/30 07:51:42;;;;;;;;;4.00;4.00;;;;;20.75;55.43;100633.91;4790990;29;45218;-84
2021/07/30 07:54:08;;;;;;;;;5.33;4.00;;;;;20.82;55.37;100634.63;4791268;29;45291;-85
2021/07/30 07:56:33;;;;;;;;;8.67;4.00;;;;;20.85;55.16;100633.66;4775194;29;45447;-84
2021/07/30 07:59:01;;;;;;;;;5.67;4.00;;;;;20.76;55.18;100627.66;4791436;29;45503;-84
2021/07/30 08:01:26;;;;;;;;;5.00;5.00;;;;;20.77;55.45;100620.53;4791622;29;45176;-84
2021/07/30 08:03:52;;;;;;;;;4.67;4.00;;;;;20.83;55.29;100620.38;4790919;29;45446;-85
2021/07/30 08:06:22;;;;;;;;;4.00;4.00;;;;;20.82;55.34;100600.78;4791038;29;45456;-85
2021/07/30 08:08:48;;;;;;;;;5.33;4.33;;;;;20.96;55.36;100614.69;4791762;29;45270;-84
2021/07/30 08:11:15;;;;;;;;;8.00;4.00;;;;;20.91;55.38;100594.31;4791850;29;45382;-84
2021/07/30 08:13:40;;;;;;;;;6.67;5.00;;;;;21.03;55.57;100609.13;4792890;29;45601;-86
2021/07/30 08:16:06;;;;;;;;;4.00;4.00;;;;;21.11;55.39;100608.91;4792102;29;45366;-85
2021/07/30 08:18:32;;;;;;;;;8.33;5.00;;;;;21.19;55.25;100610.50;4790962;29;45260;-85
2021/07/30 08:20:59;;;;;;;;;4.00;4.00;;;;;21.14;55.52;100594.59;4791056;29;45441;-85
2021/07/30 08:23:25;;;;;;;;;6.67;5.00;;;;;21.27;55.38;100603.13;4790717;29;46009;-84
2021/07/30 08:25:50;;;;;;;;;4.33;4.00;;;;;21.36;55.11;100618.88;4790096;29;45439;-85
2021/07/30 08:28:16;;;;;;;;;4.00;4.00;;;;;21.30;55.02;100592.31;4791000;29;45464;-85
2021/07/30 08:30:42;;;;;;;;;7.00;5.33;;;;;21.38;55.28;100603.66;4790628;29;45370;-85
2021/07/30 08:33:08;;;;;;;;;4.00;4.00;;;;;21.34;55.13;100609.19;4790512;29;46305;-85
2021/07/30 08:35:34;;;;;;;;;4.00;3.00;;;;;21.37;55.00;100614.41;4789704;29;45165;-85
2021/07/30 08:38:00;;;;;;;;;4.33;4.33;;;;;21.34;55.43;100615.38;4790392;29;45523;-84
2021/07/30 08:40:31;;;;;;;;;5.00;5.00;;;;;21.35;55.50;100617.16;4790693;29;45331;-84
2021/07/30 08:42:57;;;;;;;;;3.33;3.33;;;;;21.38;55.24;100609.00;4789738;29;45430;-85
2021/07/30 08:45:22;;;;;;;;;5.00;4.00;;;;;21.42;55.18;100606.25;4789886;29;45290;-85
2021/07/30 08:47:50;;;;;;;;;4.00;4.00;;;;;21.51;55.47;100595.31;4790734;29;45794;-85
2021/07/30 08:50:15;;;;;;;;;6.00;6.00;;;;;21.66;55.51;100614.47;4791062;29;45311;-85
2021/07/30 08:52:42;;;;;;;;;4.00;3.00;;;;;21.71;55.09;100608.03;4774486;29;47154;-85
2021/07/30 08:55:09;;;;;;;;;4.67;3.00;;;;;21.75;55.20;100603.47;4789829;29;45348;-84
2021/07/30 08:57:35;;;;;;;;;5.67;4.67;;;;;21.75;55.32;100599.00;4773345;29;45403;-85
2021/07/30 09:00:12;;;;;;;;;4.00;3.67;;;;;21.75;55.17;100593.66;4773578;29;45651;-85
2021/07/30 09:02:37;;;;;;;;;5.33;4.00;;;;;21.74;55.36;100599.06;4789638;29;45476;-85
2021/07/30 09:05:25;;;;;;;;;3.00;3.00;;;;;21.75;55.60;100603.47;4804749;29;45158;-84
2021/07/30 09:07:51;;;;;;;;;3.00;3.00;;;;;21.74;55.44;100591.88;4804436;29;45215;-85
2021/07/30 09:10:40;;;;;;;;;3.67;2.67;;;;;21.76;55.18;100599.88;4793052;29;44909;-85
2021/07/30 09:13:12;;;;;;;;;5.00;4.00;;;;;21.72;55.49;100593.72;4803193;29;45310;-85
2021/07/30 09:15:37;;;;;;;;;3.00;3.00;;;;;21.75;55.56;100587.41;4793788;29;45483;-85
2021/07/30 09:18:04;;;;;;;;;4.67;2.67;;;;;21.79;55.85;100591.75;4760221;29;45482;-84
2021/07/30 09:20:29;;;;;;;;;3.00;2.00;;;;;21.90;55.47;100590.56;4792012;29;45441;-85
2021/07/30 09:22:54;;;;;;;;;3.67;3.67;;;;;21.94;55.75;100597.56;4790457;29;45816;-85
2021/07/30 09:25:36;;;;;;;;;4.67;4.00;;;;;21.95;55.50;100584.16;4791403;29;45326;-84
2021/07/30 09:28:04;;;;;;;;;4.00;4.00;;;;;22.03;55.32;100597.25;4791743;29;45694;-83
2021/07/30 09:30:30;;;;;;;;;4.00;4.00;;;;;22.07;55.46;100588.22;4791282;29;45364;-85
2021/07/30 09:32:56;;;;;;;;;1.33;1.33;;;;;22.11;55.72;100591.66;4790680;29;45457;-85
2021/07/30 09:35:21;;;;;;;;;4.00;4.00;;;;;22.09;55.28;100588.16;4790111;29;45516;-85
2021/07/30 09:37:46;;;;;;;;;3.00;3.00;;;;;22.17;55.59;100593.22;4790851;29;45382;-84
2021/07/30 09:40:21;;;;;;;;;4.67;3.67;;;;;22.22;55.90;100593.97;4775160;29;45438;-85
2021/07/30 09:42:47;;;;;;;;;5.00;4.00;;;;;22.25;55.25;100598.34;4789608;29;46460;-86
2021/07/30 09:45:15;;;;;;;;;5.00;5.00;;;;;22.26;55.89;100592.94;4772891;29;45869;-85
2021/07/30 09:47:47;;;;;;;;;3.00;3.00;;;;;22.29;55.08;100583.94;4790245;29;45398;-85
2021/07/30 09:50:13;;;;;;;;;4.33;3.00;;;;;22.60;55.11;100587.34;4789832;29;45377;-86
2021/07/30 09:52:41;;;;;;;;;3.33;3.33;;;;;22.94;54.79;100593.31;4789874;29;45708;-84
2021/07/30 09:55:13;;;;;;;;;4.33;3.00;;;;;23.18;53.95;100604.91;4789332;29;45373;-85
2021/07/30 09:57:43;;;;;;;;;5.00;4.00;;;;;23.56;54.62;100590.13;4789615;29;45330;-85
2021/07/30 10:00:10;;;;;;;;;4.67;3.33;;;;;24.11;53.77;100582.56;4790433;29;45577;-86
2021/07/30 10:02:37;;;;;;;;;5.00;4.00;;;;;24.40;52.13;100588.53;4790039;29;46556;-85
2021/07/30 10:05:10;;;;;;;;;5.67;3.00;;;;;24.56;52.11;100591.41;4773578;29;45480;-86
2021/07/30 10:07:37;;;;;;;;;3.00;3.00;;;;;24.67;49.20;100590.06;4773966;29;45467;-86
2021/07/30 10:12:49;;;;;;;;;3.33;2.00;;;;;24.59;48.92;100588.59;4789118;29;45477;-86
2021/07/30 10:15:15;;;;;;;;;2.67;2.00;;;;;24.46;50.27;100582.88;4793128;29;45317;-86
2021/07/30 10:17:44;;;;;;;;;2.00;2.00;;;;;24.40;49.51;100585.84;4779781;29;45308;-85
2021/07/30 10:20:12;;;;;;;;;2.33;2.33;;;;;24.33;49.44;100573.59;4795046;29;45918;-85
2021/07/30 10:22:56;;;;;;;;;3.00;3.00;;;;;24.62;50.91;100575.00;4793615;29;46260;-86
2021/07/30 10:25:25;;;;;;;;;5.33;3.67;;;;;25.15;49.78;100576.31;4793082;29;45420;-86
2021/07/30 10:27:55;;;;;;;;;2.33;2.00;;;;;25.59;48.04;100579.66;4792914;29;45230;-86
2021/07/30 10:30:21;;;;;;;;;3.00;3.00;;;;;25.88;48.20;100575.56;4793089;29;45442;-85
2021/07/30 10:32:58;;;;;;;;;2.67;2.67;;;;;26.13;47.19;100568.03;4793589;29;45408;-86
2021/07/30 10:35:26;;;;;;;;;2.67;2.67;;;;;26.32;47.03;100565.28;4793985;29;45353;-86
2021/07/30 10:38:09;;;;;;;;;4.00;3.00;;;;;26.46;46.82;100572.66;4793346;29;45220;-87
2021/07/30 10:40:34;;;;;;;;;2.67;1.00;;;;;26.75;46.90;100568.50;4779457;29;45509;-86
2021/07/30 10:43:08;;;;;;;;;4.00;3.00;;;;;27.20;45.90;100567.94;4798906;29;45375;-86
2021/07/30 10:45:43;;;;;;;;;2.33;2.33;;;;;27.42;43.31;100582.91;4796526;29;45196;-86
2021/07/30 10:48:11;;;;;;;;;2.67;2.67;;;;;27.32;43.72;100579.88;4801887;29;45208;-87
2021/07/30 10:50:48;;;;;;;;;4.00;3.00;;;;;27.15;43.12;100587.94;4804766;29;45247;-87
2021/07/30 10:53:38;;;;;;;;;4.00;3.00;;;;;27.22;44.71;100571.41;4785501;29;47315;-85
2021/07/30 10:56:27;;;;;;;;;2.00;2.00;;;;;27.51;44.11;100566.19;4804843;29;45251;-86
2021/07/30 10:58:53;;;;;;;;;2.33;2.33;;;;;27.86;42.56;100594.84;4807226;29;44795;-87
2021/07/30 11:01:42;;;;;;;;;2.00;2.00;;;;;28.10;42.80;100575.47;4806150;29;45413;-86
2021/07/30 11:04:09;;;;;;;;;4.33;2.00;;;;;28.29;42.11;100580.63;4806170;29;46626;-84
2021/07/30 11:06:37;;;;;;;;;2.33;2.00;;;;;28.43;41.53;100568.13;4805837;29;44853;-84
2021/07/30 11:09:03;;;;;;;;;1.67;1.67;;;;;28.55;40.13;100567.41;4805764;29;45498;-85
2021/07/30 11:11:47;;;;;;;;;1.67;1.00;;;;;28.74;39.73;100590.59;4803511;29;44858;-84
2021/07/30 11:14:12;;;;;;;;;1.00;1.00;;;;;28.85;40.05;100589.06;4802894;29;45384;-84
2021/07/30 11:16:38;;;;;;;;;1.00;1.00;;;;;28.93;37.56;100580.44;4801166;29;45858;-85
2021/07/30 11:19:04;;;;;;;;;1.00;1.00;;;;;28.89;36.55;100579.78;4801871;29;45309;-84
2021/07/30 11:21:30;;;;;;;;;2.33;1.00;;;;;28.85;36.33;100583.66;4801784;29;45403;-85
2021/07/30 11:24:00;;;;;;;;;1.00;1.00;;;;;28.82;35.87;100586.53;4799709;29;45435;-86
2021/07/30 11:26:26;;;;;;;;;1.00;1.00;;;;;28.82;35.20;100578.41;4801498;29;45373;-86
2021/07/30 11:29:00;;;;;;;;;1.67;0.33;;;;;28.77;35.26;100603.03;4800823;29;45300;-86